sensor_id;sensor_type;location;lat;lon;timestamp;P1;durP1;ratioP1;P2;durP2;ratioP2
32216;SDS011;67098;51.140;4.088;2024-03-23T00:53:28;13.50;;;5.82;;
32216;SDS011;67098;51.140;4.088;2024-03-23T00:55:53;17.08;;;5.82;;
32216;SDS011;67098;51.140;4.088;2024-03-23T00:58:19;14.98;;;5.53;;
32216;SDS011;67098;51.140;4.088;2024-03-23T01:00:45;12.82;;;5.95;;
32216;SDS011;67098;51.140;4.088;2024-03-23T01:03:11;21.48;;;6.40;;
32216;SDS011;67098;51.140;4.088;2024-03-23T01:05:36;16.33;;;6.95;;
32216;SDS011;67098;51.140;4.088;2024-03-23T01:08:02;20.38;;;8.27;;
32216;SDS011;67098;51.140;4.088;2024-03-23T01:10:28;19.92;;;7.20;;
32216;SDS011;67098;51.140;4.088;2024-03-23T01:12:54;21.13;;;6.93;;
32216;SDS011;67098;51.140;4.088;2024-03-23T01:15:20;18.02;;;7.28;;
32216;SDS011;67098;51.140;4.088;2024-03-23T01:17:45;21.20;;;7.50;;
32216;SDS011;67098;51.140;4.088;2024-03-23T01:20:11;23.35;;;8.25;;
32216;SDS011;67098;51.140;4.088;2024-03-23T01:22:37;19.30;;;8.07;;
32216;SDS011;67098;51.140;4.088;2024-03-23T01:25:03;16.88;;;7.80;;
32216;SDS011;67098;51.140;4.088;2024-03-23T01:27:29;26.08;;;7.95;;
32216;SDS011;67098;51.140;4.088;2024-03-23T01:29:55;21.65;;;8.15;;
32216;SDS011;67098;51.140;4.088;2024-03-23T01:32:20;19.38;;;8.23;;
32216;SDS011;67098;51.140;4.088;2024-03-23T01:34:46;21.80;;;7.38;;
32216;SDS011;67098;51.140;4.088;2024-03-23T01:37:12;20.13;;;8.93;;
32216;SDS011;67098;51.140;4.088;2024-03-23T01:39:38;31.42;;;9.10;;
32216;SDS011;67098;51.140;4.088;2024-03-23T01:42:04;27.67;;;9.30;;
32216;SDS011;67098;51.140;4.088;2024-03-23T01:44:29;43.97;;;10.48;;
32216;SDS011;67098;51.140;4.088;2024-03-23T01:46:55;28.33;;;9.32;;
32216;SDS011;67098;51.140;4.088;2024-03-23T01:49:21;33.80;;;9.20;;
32216;SDS011;67098;51.140;4.088;2024-03-23T01:51:47;31.27;;;8.38;;
32216;SDS011;67098;51.140;4.088;2024-03-23T01:54:12;31.55;;;8.82;;
32216;SDS011;67098;51.140;4.088;2024-03-23T01:56:38;28.95;;;8.32;;
32216;SDS011;67098;51.140;4.088;2024-03-23T01:59:07;30.10;;;8.13;;
32216;SDS011;67098;51.140;4.088;2024-03-23T02:01:36;27.88;;;8.00;;
32216;SDS011;67098;51.140;4.088;2024-03-23T02:04:02;35.75;;;7.03;;
32216;SDS011;67098;51.140;4.088;2024-03-23T02:06:27;29.33;;;6.78;;
32216;SDS011;67098;51.140;4.088;2024-03-23T02:08:54;27.60;;;6.40;;
32216;SDS011;67098;51.140;4.088;2024-03-23T02:11:20;24.65;;;7.13;;
32216;SDS011;67098;51.140;4.088;2024-03-23T02:13:47;23.00;;;6.57;;
32216;SDS011;67098;51.140;4.088;2024-03-23T02:16:12;26.83;;;6.00;;
32216;SDS011;67098;51.140;4.088;2024-03-23T02:18:41;20.33;;;5.45;;
32216;SDS011;67098;51.140;4.088;2024-03-23T02:21:06;27.45;;;5.57;;
32216;SDS011;67098;51.140;4.088;2024-03-23T02:23:32;26.65;;;5.80;;
32216;SDS011;67098;51.140;4.088;2024-03-23T02:25:58;23.17;;;5.47;;
32216;SDS011;67098;51.140;4.088;2024-03-23T02:28:24;20.70;;;4.78;;
32216;SDS011;67098;51.140;4.088;2024-03-23T02:30:50;19.88;;;5.80;;
32216;SDS011;67098;51.140;4.088;2024-03-23T02:33:15;19.88;;;4.70;;
32216;SDS011;67098;51.140;4.088;2024-03-23T02:35:41;19.50;;;4.93;;
32216;SDS011;67098;51.140;4.088;2024-03-23T02:38:07;23.88;;;5.45;;
32216;SDS011;67098;51.140;4.088;2024-03-23T02:40:33;22.70;;;4.82;;
32216;SDS011;67098;51.140;4.088;2024-03-23T02:42:59;20.02;;;4.75;;
32216;SDS011;67098;51.140;4.088;2024-03-23T02:45:24;22.02;;;4.60;;
32216;SDS011;67098;51.140;4.088;2024-03-23T02:47:50;16.92;;;4.85;;
32216;SDS011;67098;51.140;4.088;2024-03-23T02:50:19;18.52;;;4.78;;
32216;SDS011;67098;51.140;4.088;2024-03-23T02:52:45;18.52;;;4.25;;
32216;SDS011;67098;51.140;4.088;2024-03-23T02:55:11;18.38;;;4.43;;
32216;SDS011;67098;51.140;4.088;2024-03-23T02:57:37;16.50;;;5.20;;
32216;SDS011;67098;51.140;4.088;2024-03-23T03:00:03;21.05;;;4.63;;
32216;SDS011;67098;51.140;4.088;2024-03-23T03:02:31;19.08;;;4.70;;
32216;SDS011;67098;51.140;4.088;2024-03-23T03:04:57;19.65;;;4.85;;
32216;SDS011;67098;51.140;4.088;2024-03-23T03:07:23;21.45;;;5.22;;
32216;SDS011;67098;51.140;4.088;2024-03-23T03:09:49;16.45;;;4.78;;
32216;SDS011;67098;51.140;4.088;2024-03-23T03:12:14;23.45;;;5.18;;
32216;SDS011;67098;51.140;4.088;2024-03-23T03:14:40;21.70;;;4.57;;
32216;SDS011;67098;51.140;4.088;2024-03-23T03:17:06;22.10;;;4.68;;
32216;SDS011;67098;51.140;4.088;2024-03-23T03:19:32;29.05;;;6.13;;
32216;SDS011;67098;51.140;4.088;2024-03-23T03:21:57;19.77;;;4.82;;
32216;SDS011;67098;51.140;4.088;2024-03-23T03:24:23;26.88;;;6.10;;
32216;SDS011;67098;51.140;4.088;2024-03-23T03:26:49;28.67;;;5.90;;
32216;SDS011;67098;51.140;4.088;2024-03-23T03:29:15;20.42;;;4.90;;
32216;SDS011;67098;51.140;4.088;2024-03-23T03:31:41;18.58;;;5.35;;
32216;SDS011;67098;51.140;4.088;2024-03-23T03:34:08;21.75;;;5.60;;
32216;SDS011;67098;51.140;4.088;2024-03-23T03:36:33;23.45;;;6.53;;
32216;SDS011;67098;51.140;4.088;2024-03-23T03:38:59;22.85;;;6.72;;
32216;SDS011;67098;51.140;4.088;2024-03-23T03:41:25;18.80;;;5.53;;
32216;SDS011;67098;51.140;4.088;2024-03-23T03:43:51;21.90;;;5.85;;
32216;SDS011;67098;51.140;4.088;2024-03-23T03:46:17;23.77;;;5.68;;
32216;SDS011;67098;51.140;4.088;2024-03-23T03:48:42;22.30;;;6.07;;
32216;SDS011;67098;51.140;4.088;2024-03-23T03:51:10;28.25;;;6.97;;
32216;SDS011;67098;51.140;4.088;2024-03-23T03:53:36;22.90;;;7.10;;
32216;SDS011;67098;51.140;4.088;2024-03-23T03:56:02;21.35;;;6.75;;
32216;SDS011;67098;51.140;4.088;2024-03-23T03:58:28;26.30;;;7.60;;
32216;SDS011;67098;51.140;4.088;2024-03-23T04:00:54;20.08;;;5.80;;
32216;SDS011;67098;51.140;4.088;2024-03-23T04:03:20;22.88;;;6.70;;
32216;SDS011;67098;51.140;4.088;2024-03-23T04:05:55;26.10;;;6.40;;
32216;SDS011;67098;51.140;4.088;2024-03-23T04:08:21;24.50;;;5.78;;
32216;SDS011;67098;51.140;4.088;2024-03-23T04:10:47;23.05;;;5.72;;
32216;SDS011;67098;51.140;4.088;2024-03-23T04:13:13;20.45;;;5.93;;
32216;SDS011;67098;51.140;4.088;2024-03-23T04:15:39;19.23;;;5.43;;
32216;SDS011;67098;51.140;4.088;2024-03-23T04:18:05;20.02;;;5.95;;
32216;SDS011;67098;51.140;4.088;2024-03-23T04:20:31;27.05;;;6.28;;
32216;SDS011;67098;51.140;4.088;2024-03-23T04:22:57;23.15;;;6.50;;
32216;SDS011;67098;51.140;4.088;2024-03-23T04:25:23;21.15;;;6.45;;
32216;SDS011;67098;51.140;4.088;2024-03-23T04:27:49;28.00;;;6.38;;
32216;SDS011;67098;51.140;4.088;2024-03-23T04:30:15;24.05;;;6.47;;
32216;SDS011;67098;51.140;4.088;2024-03-23T04:32:41;26.48;;;5.93;;
32216;SDS011;67098;51.140;4.088;2024-03-23T04:35:07;20.58;;;5.28;;
32216;SDS011;67098;51.140;4.088;2024-03-23T04:37:37;18.90;;;4.88;;
32216;SDS011;67098;51.140;4.088;2024-03-23T04:40:03;23.48;;;5.65;;
32216;SDS011;67098;51.140;4.088;2024-03-23T04:42:31;21.45;;;6.00;;
32216;SDS011;67098;51.140;4.088;2024-03-23T04:44:57;24.75;;;6.03;;
32216;SDS011;67098;51.140;4.088;2024-03-23T04:47:23;13.75;;;4.50;;
32216;SDS011;67098;51.140;4.088;2024-03-23T04:49:48;18.83;;;5.30;;
32216;SDS011;67098;51.140;4.088;2024-03-23T04:52:14;26.50;;;6.05;;
32216;SDS011;67098;51.140;4.088;2024-03-23T04:54:41;18.90;;;4.57;;
32216;SDS011;67098;51.140;4.088;2024-03-23T04:57:07;24.83;;;4.72;;
32216;SDS011;67098;51.140;4.088;2024-03-23T04:59:33;23.90;;;4.55;;
32216;SDS011;67098;51.140;4.088;2024-03-23T05:01:59;16.70;;;5.18;;
32216;SDS011;67098;51.140;4.088;2024-03-23T05:04:25;20.33;;;4.30;;
32216;SDS011;67098;51.140;4.088;2024-03-23T05:06:51;21.30;;;3.88;;
32216;SDS011;67098;51.140;4.088;2024-03-23T05:09:17;16.60;;;3.92;;
32216;SDS011;67098;51.140;4.088;2024-03-23T05:11:42;18.08;;;3.22;;
32216;SDS011;67098;51.140;4.088;2024-03-23T05:14:08;27.75;;;4.97;;
32216;SDS011;67098;51.140;4.088;2024-03-23T05:16:34;26.90;;;3.78;;
32216;SDS011;67098;51.140;4.088;2024-03-23T05:19:00;19.88;;;4.00;;
32216;SDS011;67098;51.140;4.088;2024-03-23T05:21:26;20.83;;;4.60;;
32216;SDS011;67098;51.140;4.088;2024-03-23T05:23:53;23.30;;;5.07;;
32216;SDS011;67098;51.140;4.088;2024-03-23T05:26:20;31.38;;;5.03;;
32216;SDS011;67098;51.140;4.088;2024-03-23T05:28:47;27.05;;;3.80;;
32216;SDS011;67098;51.140;4.088;2024-03-23T05:31:12;28.02;;;3.30;;
32216;SDS011;67098;51.140;4.088;2024-03-23T05:33:47;24.05;;;3.00;;
32216;SDS011;67098;51.140;4.088;2024-03-23T05:36:13;16.13;;;2.85;;
32216;SDS011;67098;51.140;4.088;2024-03-23T05:38:39;19.52;;;3.42;;
32216;SDS011;67098;51.140;4.088;2024-03-23T05:41:04;24.70;;;3.58;;
32216;SDS011;67098;51.140;4.088;2024-03-23T05:43:30;23.67;;;4.13;;
32216;SDS011;67098;51.140;4.088;2024-03-23T05:45:56;23.92;;;3.33;;
32216;SDS011;67098;51.140;4.088;2024-03-23T05:48:23;19.52;;;3.55;;
32216;SDS011;67098;51.140;4.088;2024-03-23T05:50:50;23.20;;;4.88;;
32216;SDS011;67098;51.140;4.088;2024-03-23T05:53:16;12.65;;;3.47;;
32216;SDS011;67098;51.140;4.088;2024-03-23T05:55:42;19.58;;;4.15;;
32216;SDS011;67098;51.140;4.088;2024-03-23T05:58:08;21.48;;;3.38;;
32216;SDS011;67098;51.140;4.088;2024-03-23T06:00:35;16.13;;;3.22;;
32216;SDS011;67098;51.140;4.088;2024-03-23T06:03:01;15.60;;;3.70;;
32216;SDS011;67098;51.140;4.088;2024-03-23T06:05:27;20.75;;;3.20;;
32216;SDS011;67098;51.140;4.088;2024-03-23T06:07:53;15.88;;;3.15;;
32216;SDS011;67098;51.140;4.088;2024-03-23T06:10:19;20.58;;;3.63;;
32216;SDS011;67098;51.140;4.088;2024-03-23T06:12:47;25.30;;;3.33;;
32216;SDS011;67098;51.140;4.088;2024-03-23T06:15:14;19.00;;;3.70;;
32216;SDS011;67098;51.140;4.088;2024-03-23T06:17:39;20.92;;;3.58;;
32216;SDS011;67098;51.140;4.088;2024-03-23T06:20:05;19.27;;;4.07;;
32216;SDS011;67098;51.140;4.088;2024-03-23T06:22:32;18.65;;;4.00;;
32216;SDS011;67098;51.140;4.088;2024-03-23T06:24:58;21.08;;;4.72;;
32216;SDS011;67098;51.140;4.088;2024-03-23T06:27:24;23.30;;;4.38;;
32216;SDS011;67098;51.140;4.088;2024-03-23T06:29:50;29.77;;;4.22;;
32216;SDS011;67098;51.140;4.088;2024-03-23T06:32:16;23.27;;;4.35;;
32216;SDS011;67098;51.140;4.088;2024-03-23T06:34:42;22.63;;;3.90;;
32216;SDS011;67098;51.140;4.088;2024-03-23T06:37:08;13.98;;;3.58;;
32216;SDS011;67098;51.140;4.088;2024-03-23T06:39:37;17.60;;;3.17;;
32216;SDS011;67098;51.140;4.088;2024-03-23T06:42:03;20.75;;;4.00;;
32216;SDS011;67098;51.140;4.088;2024-03-23T06:44:30;19.42;;;3.05;;
32216;SDS011;67098;51.140;4.088;2024-03-23T06:46:56;14.95;;;3.40;;
32216;SDS011;67098;51.140;4.088;2024-03-23T06:49:23;20.73;;;3.00;;
32216;SDS011;67098;51.140;4.088;2024-03-23T06:51:49;22.70;;;3.92;;
32216;SDS011;67098;51.140;4.088;2024-03-23T06:54:16;17.08;;;3.05;;
32216;SDS011;67098;51.140;4.088;2024-03-23T06:56:43;20.30;;;2.80;;
32216;SDS011;67098;51.140;4.088;2024-03-23T06:59:09;17.05;;;3.15;;
32216;SDS011;67098;51.140;4.088;2024-03-23T07:01:35;19.38;;;3.05;;
32216;SDS011;67098;51.140;4.088;2024-03-23T07:04:01;21.60;;;3.67;;
32216;SDS011;67098;51.140;4.088;2024-03-23T07:06:27;19.52;;;3.75;;
32216;SDS011;67098;51.140;4.088;2024-03-23T07:08:53;18.20;;;3.65;;
32216;SDS011;67098;51.140;4.088;2024-03-23T07:11:20;15.27;;;2.78;;
32216;SDS011;67098;51.140;4.088;2024-03-23T07:13:52;22.90;;;4.13;;
32216;SDS011;67098;51.140;4.088;2024-03-23T07:16:21;19.00;;;2.75;;
32216;SDS011;67098;51.140;4.088;2024-03-23T07:18:49;13.75;;;3.10;;
32216;SDS011;67098;51.140;4.088;2024-03-23T07:21:15;15.48;;;3.95;;
32216;SDS011;67098;51.140;4.088;2024-03-23T07:23:44;17.70;;;3.30;;
32216;SDS011;67098;51.140;4.088;2024-03-23T07:26:10;16.95;;;3.72;;
32216;SDS011;67098;51.140;4.088;2024-03-23T07:28:36;23.02;;;3.67;;
32216;SDS011;67098;51.140;4.088;2024-03-23T07:31:13;23.95;;;3.83;;
32216;SDS011;67098;51.140;4.088;2024-03-23T07:33:43;16.60;;;2.83;;
32216;SDS011;67098;51.140;4.088;2024-03-23T07:36:12;14.20;;;3.08;;
32216;SDS011;67098;51.140;4.088;2024-03-23T07:38:41;16.85;;;3.10;;
32216;SDS011;67098;51.140;4.088;2024-03-23T07:41:10;21.88;;;3.90;;
32216;SDS011;67098;51.140;4.088;2024-03-23T07:43:37;17.67;;;3.20;;
32216;SDS011;67098;51.140;4.088;2024-03-23T07:46:03;22.98;;;3.30;;
32216;SDS011;67098;51.140;4.088;2024-03-23T07:48:30;18.90;;;3.53;;
32216;SDS011;67098;51.140;4.088;2024-03-23T07:50:57;9.63;;;2.58;;
32216;SDS011;67098;51.140;4.088;2024-03-23T07:53:24;18.02;;;3.83;;
32216;SDS011;67098;51.140;4.088;2024-03-23T07:55:56;17.50;;;4.30;;
32216;SDS011;67098;51.140;4.088;2024-03-23T07:58:26;19.02;;;3.05;;
32216;SDS011;67098;51.140;4.088;2024-03-23T08:00:55;20.10;;;3.25;;
32216;SDS011;67098;51.140;4.088;2024-03-23T08:03:22;15.48;;;2.92;;
32216;SDS011;67098;51.140;4.088;2024-03-23T08:05:48;14.32;;;3.05;;
32216;SDS011;67098;51.140;4.088;2024-03-23T08:08:14;12.05;;;2.30;;
32216;SDS011;67098;51.140;4.088;2024-03-23T08:13:15;20.90;;;3.17;;
32216;SDS011;67098;51.140;4.088;2024-03-23T08:15:41;14.25;;;3.13;;
32216;SDS011;67098;51.140;4.088;2024-03-23T08:18:07;24.83;;;3.90;;
32216;SDS011;67098;51.140;4.088;2024-03-23T08:20:33;22.73;;;3.17;;
32216;SDS011;67098;51.140;4.088;2024-03-23T08:22:59;15.57;;;2.80;;
32216;SDS011;67098;51.140;4.088;2024-03-23T08:25:24;16.25;;;2.47;;
32216;SDS011;67098;51.140;4.088;2024-03-23T08:27:50;14.02;;;2.70;;
32216;SDS011;67098;51.140;4.088;2024-03-23T08:30:16;19.13;;;2.92;;
32216;SDS011;67098;51.140;4.088;2024-03-23T08:32:42;12.35;;;2.70;;
32216;SDS011;67098;51.140;4.088;2024-03-23T08:35:08;15.10;;;3.22;;
32216;SDS011;67098;51.140;4.088;2024-03-23T08:37:34;16.60;;;2.90;;
32216;SDS011;67098;51.140;4.088;2024-03-23T08:40:00;18.15;;;3.05;;
32216;SDS011;67098;51.140;4.088;2024-03-23T08:42:25;19.38;;;2.92;;
32216;SDS011;67098;51.140;4.088;2024-03-23T08:44:51;13.02;;;2.28;;
32216;SDS011;67098;51.140;4.088;2024-03-23T08:47:17;15.70;;;2.92;;
32216;SDS011;67098;51.140;4.088;2024-03-23T08:49:44;21.20;;;3.30;;
32216;SDS011;67098;51.140;4.088;2024-03-23T08:52:10;13.68;;;2.53;;
32216;SDS011;67098;51.140;4.088;2024-03-23T08:54:35;20.67;;;3.75;;
32216;SDS011;67098;51.140;4.088;2024-03-23T08:57:01;19.75;;;3.42;;
32216;SDS011;67098;51.140;4.088;2024-03-23T08:59:27;12.90;;;2.60;;
32216;SDS011;67098;51.140;4.088;2024-03-23T09:01:53;16.17;;;2.42;;
32216;SDS011;67098;51.140;4.088;2024-03-23T09:04:19;19.05;;;3.08;;
32216;SDS011;67098;51.140;4.088;2024-03-23T09:06:44;17.95;;;3.90;;
32216;SDS011;67098;51.140;4.088;2024-03-23T09:09:10;20.85;;;3.10;;
32216;SDS011;67098;51.140;4.088;2024-03-23T09:11:36;22.73;;;2.70;;
32216;SDS011;67098;51.140;4.088;2024-03-23T09:14:02;12.25;;;2.10;;
32216;SDS011;67098;51.140;4.088;2024-03-23T09:16:28;5.75;;;1.23;;
32216;SDS011;67098;51.140;4.088;2024-03-23T09:18:54;12.05;;;2.25;;
32216;SDS011;67098;51.140;4.088;2024-03-23T09:21:20;9.85;;;2.03;;
32216;SDS011;67098;51.140;4.088;2024-03-23T09:23:46;8.70;;;1.63;;
32216;SDS011;67098;51.140;4.088;2024-03-23T09:26:12;7.90;;;1.70;;
32216;SDS011;67098;51.140;4.088;2024-03-23T09:28:38;14.45;;;2.20;;
32216;SDS011;67098;51.140;4.088;2024-03-23T09:31:04;14.60;;;3.38;;
32216;SDS011;67098;51.140;4.088;2024-03-23T09:33:31;22.52;;;3.25;;
32216;SDS011;67098;51.140;4.088;2024-03-23T09:35:57;13.63;;;2.28;;
32216;SDS011;67098;51.140;4.088;2024-03-23T09:38:23;12.82;;;2.20;;
32216;SDS011;67098;51.140;4.088;2024-03-23T09:40:52;18.13;;;2.08;;
32216;SDS011;67098;51.140;4.088;2024-03-23T09:43:18;14.43;;;2.63;;
32216;SDS011;67098;51.140;4.088;2024-03-23T09:45:46;10.65;;;1.92;;
32216;SDS011;67098;51.140;4.088;2024-03-23T09:48:12;13.57;;;2.10;;
32216;SDS011;67098;51.140;4.088;2024-03-23T09:50:42;16.92;;;2.22;;
32216;SDS011;67098;51.140;4.088;2024-03-23T09:53:09;14.73;;;2.20;;
32216;SDS011;67098;51.140;4.088;2024-03-23T09:55:37;17.05;;;2.50;;
32216;SDS011;67098;51.140;4.088;2024-03-23T09:58:04;19.92;;;3.17;;
32216;SDS011;67098;51.140;4.088;2024-03-23T10:00:31;17.95;;;3.22;;
32216;SDS011;67098;51.140;4.088;2024-03-23T10:03:00;16.70;;;2.95;;
32216;SDS011;67098;51.140;4.088;2024-03-23T10:05:27;16.33;;;2.85;;
32216;SDS011;67098;51.140;4.088;2024-03-23T10:07:56;12.57;;;2.15;;
32216;SDS011;67098;51.140;4.088;2024-03-23T10:10:22;12.57;;;2.20;;
32216;SDS011;67098;51.140;4.088;2024-03-23T10:12:50;12.52;;;2.28;;
32216;SDS011;67098;51.140;4.088;2024-03-23T10:15:24;15.05;;;2.72;;
32216;SDS011;67098;51.140;4.088;2024-03-23T10:17:50;14.82;;;2.92;;
32216;SDS011;67098;51.140;4.088;2024-03-23T10:20:20;10.85;;;2.10;;
32216;SDS011;67098;51.140;4.088;2024-03-23T10:22:50;14.60;;;2.25;;
32216;SDS011;67098;51.140;4.088;2024-03-23T10:27:59;12.52;;;2.00;;
32216;SDS011;67098;51.140;4.088;2024-03-23T10:30:26;8.63;;;1.73;;
32216;SDS011;67098;51.140;4.088;2024-03-23T10:33:11;9.18;;;1.70;;
32216;SDS011;67098;51.140;4.088;2024-03-23T10:35:38;6.43;;;2.00;;
32216;SDS011;67098;51.140;4.088;2024-03-23T10:38:04;15.18;;;1.98;;
32216;SDS011;67098;51.140;4.088;2024-03-23T10:40:33;9.55;;;1.63;;
32216;SDS011;67098;51.140;4.088;2024-03-23T10:43:00;10.18;;;1.90;;
32216;SDS011;67098;51.140;4.088;2024-03-23T10:45:26;9.52;;;1.75;;
32216;SDS011;67098;51.140;4.088;2024-03-23T10:47:52;9.43;;;1.70;;
32216;SDS011;67098;51.140;4.088;2024-03-23T10:50:17;11.13;;;1.90;;
32216;SDS011;67098;51.140;4.088;2024-03-23T10:52:46;9.82;;;2.08;;
32216;SDS011;67098;51.140;4.088;2024-03-23T10:55:18;11.00;;;2.72;;
32216;SDS011;67098;51.140;4.088;2024-03-23T10:57:55;9.25;;;2.20;;
32216;SDS011;67098;51.140;4.088;2024-03-23T11:00:23;11.60;;;1.92;;
32216;SDS011;67098;51.140;4.088;2024-03-23T11:02:50;14.85;;;2.05;;
32216;SDS011;67098;51.140;4.088;2024-03-23T11:07:53;10.05;;;2.13;;
32216;SDS011;67098;51.140;4.088;2024-03-23T11:10:26;10.32;;;1.88;;
32216;SDS011;67098;51.140;4.088;2024-03-23T11:12:54;10.77;;;1.95;;
32216;SDS011;67098;51.140;4.088;2024-03-23T11:15:21;12.48;;;2.15;;
32216;SDS011;67098;51.140;4.088;2024-03-23T11:18:05;10.15;;;2.40;;
32216;SDS011;67098;51.140;4.088;2024-03-23T11:20:37;13.93;;;2.20;;
32216;SDS011;67098;51.140;4.088;2024-03-23T11:23:03;10.57;;;2.25;;
32216;SDS011;67098;51.140;4.088;2024-03-23T11:25:29;7.95;;;1.80;;
32216;SDS011;67098;51.140;4.088;2024-03-23T11:28:10;10.73;;;1.98;;
32216;SDS011;67098;51.140;4.088;2024-03-23T11:30:40;9.65;;;2.15;;
32216;SDS011;67098;51.140;4.088;2024-03-23T11:33:07;9.43;;;2.03;;
32216;SDS011;67098;51.140;4.088;2024-03-23T11:35:34;9.80;;;1.55;;
32216;SDS011;67098;51.140;4.088;2024-03-23T11:38:05;4.95;;;1.52;;
32216;SDS011;67098;51.140;4.088;2024-03-23T11:40:42;9.52;;;1.77;;
32216;SDS011;67098;51.140;4.088;2024-03-23T11:43:10;13.30;;;1.67;;
32216;SDS011;67098;51.140;4.088;2024-03-23T11:45:38;6.70;;;1.60;;
32216;SDS011;67098;51.140;4.088;2024-03-23T11:48:07;16.02;;;2.55;;
32216;SDS011;67098;51.140;4.088;2024-03-23T11:50:43;11.55;;;3.10;;
32216;SDS011;67098;51.140;4.088;2024-03-23T11:53:17;11.30;;;2.60;;
32216;SDS011;67098;51.140;4.088;2024-03-23T11:55:49;11.15;;;2.63;;
32216;SDS011;67098;51.140;4.088;2024-03-23T11:58:18;11.40;;;2.33;;
32216;SDS011;67098;51.140;4.088;2024-03-23T12:03:22;9.60;;;3.35;;
32216;SDS011;67098;51.140;4.088;2024-03-23T12:05:53;14.75;;;3.67;;
32216;SDS011;67098;51.140;4.088;2024-03-23T12:08:21;15.27;;;3.13;;
32216;SDS011;67098;51.140;4.088;2024-03-23T12:11:04;14.60;;;2.97;;
32216;SDS011;67098;51.140;4.088;2024-03-23T12:13:31;11.82;;;2.42;;
32216;SDS011;67098;51.140;4.088;2024-03-23T12:16:08;13.35;;;2.63;;
32216;SDS011;67098;51.140;4.088;2024-03-23T12:18:35;9.68;;;2.35;;
32216;SDS011;67098;51.140;4.088;2024-03-23T12:21:01;9.32;;;2.53;;
32216;SDS011;67098;51.140;4.088;2024-03-23T12:23:27;15.23;;;2.30;;
32216;SDS011;67098;51.140;4.088;2024-03-23T12:25:53;12.95;;;2.47;;
32216;SDS011;67098;51.140;4.088;2024-03-23T12:28:19;9.60;;;1.58;;
32216;SDS011;67098;51.140;4.088;2024-03-23T12:30:45;10.02;;;2.20;;
32216;SDS011;67098;51.140;4.088;2024-03-23T12:33:11;12.15;;;2.97;;
32216;SDS011;67098;51.140;4.088;2024-03-23T12:35:36;8.10;;;2.13;;
32216;SDS011;67098;51.140;4.088;2024-03-23T12:38:02;8.70;;;1.80;;
32216;SDS011;67098;51.140;4.088;2024-03-23T12:40:28;8.95;;;2.25;;
32216;SDS011;67098;51.140;4.088;2024-03-23T12:42:54;7.50;;;2.10;;
32216;SDS011;67098;51.140;4.088;2024-03-23T12:45:21;9.95;;;2.10;;
32216;SDS011;67098;51.140;4.088;2024-03-23T12:47:47;8.30;;;2.15;;
32216;SDS011;67098;51.140;4.088;2024-03-23T12:50:13;9.45;;;1.92;;
32216;SDS011;67098;51.140;4.088;2024-03-23T12:52:39;5.30;;;1.60;;
32216;SDS011;67098;51.140;4.088;2024-03-23T12:55:05;12.30;;;2.25;;
32216;SDS011;67098;51.140;4.088;2024-03-23T12:57:31;14.65;;;2.38;;
32216;SDS011;67098;51.140;4.088;2024-03-23T12:59:57;8.00;;;1.70;;
32216;SDS011;67098;51.140;4.088;2024-03-23T13:02:23;7.07;;;1.50;;
32216;SDS011;67098;51.140;4.088;2024-03-23T13:04:50;13.93;;;1.73;;
32216;SDS011;67098;51.140;4.088;2024-03-23T13:07:16;9.48;;;1.88;;
32216;SDS011;67098;51.140;4.088;2024-03-23T13:09:43;7.75;;;1.70;;
32216;SDS011;67098;51.140;4.088;2024-03-23T13:12:09;6.68;;;0.98;;
32216;SDS011;67098;51.140;4.088;2024-03-23T13:14:37;2.92;;;0.63;;
32216;SDS011;67098;51.140;4.088;2024-03-23T13:17:03;5.43;;;0.80;;
32216;SDS011;67098;51.140;4.088;2024-03-23T13:19:30;5.15;;;0.98;;
32216;SDS011;67098;51.140;4.088;2024-03-23T13:21:56;4.13;;;0.88;;
32216;SDS011;67098;51.140;4.088;2024-03-23T13:24:26;2.40;;;0.77;;
32216;SDS011;67098;51.140;4.088;2024-03-23T13:26:53;4.38;;;1.05;;
32216;SDS011;67098;51.140;4.088;2024-03-23T13:29:20;1.48;;;0.65;;
32216;SDS011;67098;51.140;4.088;2024-03-23T13:31:46;5.85;;;0.60;;
32216;SDS011;67098;51.140;4.088;2024-03-23T13:34:15;3.33;;;1.02;;
32216;SDS011;67098;51.140;4.088;2024-03-23T13:36:42;4.15;;;0.88;;
32216;SDS011;67098;51.140;4.088;2024-03-23T13:39:08;3.63;;;1.02;;
32216;SDS011;67098;51.140;4.088;2024-03-23T13:41:40;5.97;;;1.08;;
32216;SDS011;67098;51.140;4.088;2024-03-23T13:44:10;3.15;;;0.88;;
32216;SDS011;67098;51.140;4.088;2024-03-23T13:46:38;4.95;;;1.30;;
32216;SDS011;67098;51.140;4.088;2024-03-23T13:49:04;6.85;;;1.33;;
32216;SDS011;67098;51.140;4.088;2024-03-23T13:51:31;4.15;;;1.35;;
32216;SDS011;67098;51.140;4.088;2024-03-23T13:53:57;5.65;;;1.45;;
32216;SDS011;67098;51.140;4.088;2024-03-23T13:56:26;9.55;;;2.40;;
32216;SDS011;67098;51.140;4.088;2024-03-23T13:58:54;4.80;;;1.60;;
32216;SDS011;67098;51.140;4.088;2024-03-23T14:01:21;8.05;;;1.80;;
32216;SDS011;67098;51.140;4.088;2024-03-23T14:03:47;8.25;;;2.35;;
32216;SDS011;67098;51.140;4.088;2024-03-23T14:06:13;7.70;;;1.40;;
32216;SDS011;67098;51.140;4.088;2024-03-23T14:08:38;7.18;;;1.92;;
32216;SDS011;67098;51.140;4.088;2024-03-23T14:11:10;10.57;;;1.70;;
32216;SDS011;67098;51.140;4.088;2024-03-23T14:13:36;8.32;;;1.77;;
32216;SDS011;67098;51.140;4.088;2024-03-23T14:16:03;6.25;;;1.80;;
32216;SDS011;67098;51.140;4.088;2024-03-23T14:18:29;9.10;;;1.90;;
32216;SDS011;67098;51.140;4.088;2024-03-23T14:20:59;7.90;;;2.53;;
32216;SDS011;67098;51.140;4.088;2024-03-23T14:23:29;6.40;;;1.70;;
32216;SDS011;67098;51.140;4.088;2024-03-23T14:25:59;10.77;;;2.13;;
32216;SDS011;67098;51.140;4.088;2024-03-23T14:28:25;7.95;;;1.45;;
32216;SDS011;67098;51.140;4.088;2024-03-23T14:30:51;13.02;;;2.53;;
32216;SDS011;67098;51.140;4.088;2024-03-23T14:33:17;7.40;;;1.75;;
32216;SDS011;67098;51.140;4.088;2024-03-23T14:35:43;9.55;;;1.60;;
32216;SDS011;67098;51.140;4.088;2024-03-23T14:38:19;7.25;;;1.40;;
32216;SDS011;67098;51.140;4.088;2024-03-23T14:40:48;5.22;;;1.20;;
32216;SDS011;67098;51.140;4.088;2024-03-23T14:43:14;7.45;;;1.40;;
32216;SDS011;67098;51.140;4.088;2024-03-23T14:48:32;9.23;;;1.52;;
32216;SDS011;67098;51.140;4.088;2024-03-23T14:50:58;9.10;;;1.50;;
32216;SDS011;67098;51.140;4.088;2024-03-23T14:53:25;6.40;;;1.25;;
32216;SDS011;67098;51.140;4.088;2024-03-23T14:55:55;7.97;;;1.70;;
32216;SDS011;67098;51.140;4.088;2024-03-23T14:58:25;8.35;;;1.80;;
32216;SDS011;67098;51.140;4.088;2024-03-23T15:00:51;8.68;;;1.80;;
32216;SDS011;67098;51.140;4.088;2024-03-23T15:03:18;10.88;;;1.60;;
32216;SDS011;67098;51.140;4.088;2024-03-23T15:05:54;6.30;;;1.52;;
32216;SDS011;67098;51.140;4.088;2024-03-23T15:08:20;3.60;;;1.30;;
32216;SDS011;67098;51.140;4.088;2024-03-23T15:10:46;7.70;;;1.40;;
32216;SDS011;67098;51.140;4.088;2024-03-23T15:13:11;5.53;;;1.20;;
32216;SDS011;67098;51.140;4.088;2024-03-23T15:15:41;4.45;;;0.90;;
32216;SDS011;67098;51.140;4.088;2024-03-23T15:18:12;5.43;;;1.08;;
32216;SDS011;67098;51.140;4.088;2024-03-23T15:20:40;5.07;;;1.17;;
32216;SDS011;67098;51.140;4.088;2024-03-23T15:23:22;7.00;;;1.52;;
32216;SDS011;67098;51.140;4.088;2024-03-23T15:25:57;4.88;;;1.20;;
32216;SDS011;67098;51.140;4.088;2024-03-23T15:28:24;6.15;;;1.58;;
32216;SDS011;67098;51.140;4.088;2024-03-23T15:31:06;5.28;;;1.65;;
32216;SDS011;67098;51.140;4.088;2024-03-23T15:33:35;6.60;;;1.98;;
32216;SDS011;67098;51.140;4.088;2024-03-23T15:36:04;13.43;;;2.53;;
32216;SDS011;67098;51.140;4.088;2024-03-23T15:38:31;6.05;;;1.92;;
32216;SDS011;67098;51.140;4.088;2024-03-23T15:40:57;7.97;;;2.10;;
32216;SDS011;67098;51.140;4.088;2024-03-23T15:43:24;9.98;;;1.65;;